首页
METAR-TAF:

METAR-TAF

机场 :

贝尔加莫, 意大利

纬度: 45-40N, 经度: 009-42E, 海拔: 238米

当前天气观测

该预报发布于48分钟前的00:50 UTC
风速7节,风向
温度 3°C
湿度 75%
气压 1006 hPa
能见度10公里或以上
1500米以下无云,无积雨云

METAR: LIME 140050Z 01007KT CAVOK 03/M01 Q1006 NOSIG

时间: 02:38 (01:38 UTC)

预报

该预报发布于2小时和38分钟前的23:00 UTC
预报有效从14日的 00点(UTC)到 14日的 24点(UTC)
风速5节,风向多变
能見度: 8000

TAF: LIME 132300Z 1400/1424 VRB05KT 8000 NSC

超过4000个机场的气象观测和天气预报(METAR&TAF报告)。

可查询的气象台以黄色和红色小点在地图上表示。

将鼠标移到小点上方,可查看气象台名称。

然后点击查看天气观测和预报。

如需切换地图:点击带黑十字的绿色按钮放大地图;点击带横线的绿色按钮缩小地图;或者点击绿色箭头查看邻近地区的地图。


METAR-TAF: